Time;durP1;ratioP1;P1;durP2;ratioP2;P2;SDS_P1;SDS_P2;PMS_P1;PMS_P2;Temp;Humidity;BMP_temperature;BMP_pressure;BME280_temperature;BME280_humidity;BME280_pressure;Samples;Min_cycle;Max_cycle;Signal;HPM_P1;HPM_P2
2021/08/21 00:01:13;;;;;;;5.40;3.03;;;;;;;24.99;34.14;99630.06;5112012;28;20023;-79
2021/08/21 00:03:38;;;;;;;5.90;3.53;;;;;;;24.90;34.23;99620.84;5112671;28;20399;-79
2021/08/21 00:06:04;;;;;;;4.55;3.17;;;;;;;24.92;34.58;99629.47;5094061;28;20114;-79
2021/08/21 00:08:30;;;;;;;5.78;3.22;;;;;;;24.66;34.67;99596.25;5112329;28;20057;-78
2021/08/21 00:10:56;;;;;;;7.45;3.20;;;;;;;24.95;34.83;99645.16;5112561;28;20047;-79
2021/08/21 00:13:21;;;;;;;9.93;2.97;;;;;;;24.88;34.70;99641.09;5112608;28;20031;-79
2021/08/21 00:15:47;;;;;;;7.03;3.10;;;;;;;24.92;34.82;99652.97;5112318;28;20019;-79
2021/08/21 00:18:12;;;;;;;8.98;3.10;;;;;;;24.92;34.50;99661.09;5112144;28;20564;-78
2021/08/21 00:20:38;;;;;;;4.90;3.35;;;;;;;24.91;34.80;99652.16;5112163;28;21143;-78
2021/08/21 00:23:04;;;;;;;5.22;3.17;;;;;;;24.91;34.51;99656.75;5112278;28;20020;-74
2021/08/21 00:25:30;;;;;;;4.70;2.97;;;;;;;24.43;34.53;99583.25;5094196;28;20114;-74
2021/08/21 00:27:55;;;;;;;6.45;2.90;;;;;;;24.39;34.65;99593.75;5112309;28;20072;-73
2021/08/21 00:30:21;;;;;;;5.53;2.90;;;;;;;24.46;34.63;99598.09;5112263;28;20022;-73
2021/08/21 00:32:46;;;;;;;3.75;3.10;;;;;;;24.74;34.74;99662.41;5112138;28;20019;-73
2021/08/21 00:35:13;;;;;;;4.40;3.22;;;;;;;24.70;34.89;99654.03;5112228;28;20031;-74
2021/08/21 00:37:38;;;;;;;4.78;3.08;;;;;;;24.39;35.03;99607.25;5112187;28;20023;-74
2021/08/21 00:40:06;;;;;;;8.00;2.70;;;;;;;24.58;35.24;99658.88;5112064;28;20023;-74
2021/08/21 00:42:32;;;;;;;9.35;3.08;;;;;;;24.54;35.51;99652.41;5112087;28;20110;-74
2021/08/21 00:44:57;;;;;;;6.28;3.67;;;;;;;24.49;35.75;99652.34;5111894;28;20019;-73
2021/08/21 00:47:23;;;;;;;8.07;3.22;;;;;;;24.11;35.80;99596.91;5112103;28;20106;-73
2021/08/21 00:49:51;;;;;;;7.07;3.42;;;;;;;24.40;35.80;99643.16;5111863;28;20110;-73
2021/08/21 00:52:23;;;;;;;5.03;3.08;;;;;;;24.23;36.09;99620.94;5111749;28;20047;-73
2021/08/21 00:54:49;;;;;;;4.50;3.38;;;;;;;24.30;36.11;99652.03;5111885;28;20024;-74
2021/08/21 00:57:16;;;;;;;5.18;3.50;;;;;;;24.23;36.20;99642.53;5111564;28;20048;-73
2021/08/21 00:59:43;;;;;;;4.25;3.20;;;;;;;24.26;36.31;99648.22;5111730;28;20047;-74
2021/08/21 01:02:09;;;;;;;4.72;2.97;;;;;;;24.23;36.51;99648.75;5111661;28;20019;-74
2021/08/21 01:04:47;;;;;;;3.65;3.13;;;;;;;24.23;36.50;99651.44;5111699;28;20472;-74
2021/08/21 01:07:14;;;;;;;4.25;3.00;;;;;;;24.21;36.45;99659.00;5111919;28;20028;-73
2021/08/21 01:09:41;;;;;;;4.68;3.13;;;;;;;24.20;36.54;99649.28;5111859;28;20076;-73
2021/08/21 01:12:11;;;;;;;5.07;3.40;;;;;;;24.17;36.42;99649.81;5114087;28;20081;-74
2021/08/21 01:14:37;;;;;;;5.43;3.08;;;;;;;24.11;36.77;99645.47;5116113;28;20024;-73
2021/08/21 01:17:04;;;;;;;5.35;3.53;;;;;;;24.09;36.72;99651.13;5115920;28;20015;-73
2021/08/21 01:19:36;;;;;;;3.50;3.17;;;;;;;24.09;36.77;99651.13;5115875;28;20020;-73
2021/08/21 01:22:04;;;;;;;7.07;3.63;;;;;;;24.09;36.71;99651.13;5115712;28;20118;-74
2021/08/21 01:24:29;;;;;;;4.13;2.92;;;;;;;23.97;36.69;99625.44;5115908;28;20027;-79
2021/08/21 01:26:56;;;;;;;5.00;3.28;;;;;;;23.82;36.69;99593.84;5097434;28;20415;-78
2021/08/21 01:29:22;;;;;;;6.32;3.25;;;;;;;24.15;36.86;99645.75;5115687;28;20058;-79
2021/08/21 01:31:48;;;;;;;4.50;3.20;;;;;;;24.01;36.67;99619.25;5115728;28;20059;-78
2021/08/21 01:34:14;;;;;;;8.77;3.95;;;;;;;24.08;36.73;99633.31;5115419;28;20557;-79
2021/08/21 01:36:45;;;;;;;3.83;3.08;;;;;;;24.07;36.71;99639.78;5115552;28;20054;-78
2021/08/21 01:39:11;;;;;;;4.13;3.20;;;;;;;23.60;36.96;99577.81;5115356;28;20024;-79
2021/08/21 01:41:37;;;;;;;4.63;3.45;;;;;;;23.93;37.00;99618.97;5115392;28;20039;-79
2021/08/21 01:44:07;;;;;;;5.88;3.30;;;;;;;23.79;37.09;99599.75;5115304;28;20510;-79
2021/08/21 01:46:33;;;;;;;4.47;3.20;;;;;;;23.67;37.10;99591.84;5115351;28;20497;-79
2021/08/21 01:49:01;;;;;;;6.45;3.53;;;;;;;23.95;37.19;99644.59;5115381;28;20027;-79
2021/08/21 01:51:26;;;;;;;7.57;3.67;;;;;;;23.25;37.25;99537.19;5115472;28;20027;-79
2021/08/21 01:53:55;;;;;;;3.75;2.95;;;;;;;23.83;37.41;99629.72;5115384;28;20019;-78
2021/08/21 01:56:20;;;;;;;7.68;3.45;;;;;;;23.85;37.61;99647.25;5115117;28;20557;-79
2021/08/21 01:58:46;;;;;;;3.92;3.50;;;;;;;23.74;37.75;99640.97;5115227;28;20053;-79
2021/08/21 02:01:14;;;;;;;3.92;3.00;;;;;;;23.72;37.71;99639.59;5115111;28;20028;-79
2021/08/21 02:03:42;;;;;;;5.85;3.60;;;;;;;23.75;37.96;99647.16;5115093;28;20381;-78
2021/08/21 02:06:08;;;;;;;6.85;3.80;;;;;;;23.73;38.50;99638.53;5115170;28;20080;-78
2021/08/21 02:08:33;;;;;;;9.00;4.25;;;;;;;23.64;38.81;99632.81;5115108;28;20023;-79
2021/08/21 02:10:58;;;;;;;5.68;4.05;;;;;;;23.45;39.33;99605.47;5114757;28;20412;-79
2021/08/21 02:13:24;;;;;;;5.00;3.90;;;;;;;23.59;39.26;99638.19;5114793;28;20464;-79
2021/08/21 02:15:49;;;;;;;6.97;3.45;;;;;;;23.45;39.68;99627.03;5114793;28;20024;-78
2021/08/21 02:18:15;;;;;;;6.25;3.92;;;;;;;23.39;39.92;99628.06;5114635;28;20035;-79
2021/08/21 02:20:40;;;;;;;5.57;3.63;;;;;;;23.07;40.10;99589.59;5114764;28;20487;-79
2021/08/21 02:23:05;;;;;;;4.05;3.45;;;;;;;23.42;40.16;99649.09;5113787;28;20027;-74
2021/08/21 02:25:32;;;;;;;4.47;3.60;;;;;;;23.37;40.38;99653.66;5114288;28;20035;-74
2021/08/21 02:28:08;;;;;;;4.18;3.78;;;;;;;23.03;40.59;99612.69;5114400;28;20145;-73
2021/08/21 02:30:36;;;;;;;4.25;3.72;;;;;;;23.17;40.85;99662.38;5114613;28;20055;-74
2021/08/21 02:33:02;;;;;;;5.80;3.45;;;;;;;22.99;41.04;99655.47;5114508;28;20027;-74
2021/08/21 02:35:27;;;;;;;4.72;3.90;;;;;;;22.53;41.32;99608.47;5114648;28;20408;-74
2021/08/21 02:37:52;;;;;;;4.50;3.85;;;;;;;22.50;41.48;99619.75;5114298;28;20030;-74
2021/08/21 02:40:18;;;;;;;4.03;3.63;;;;;;;22.73;41.58;99662.50;5114151;28;20499;-74
2021/08/21 02:42:43;;;;;;;7.78;4.03;;;;;;;22.73;41.57;99667.06;5114132;28;20081;-73
2021/08/21 02:45:09;;;;;;;5.68;3.95;;;;;;;22.43;41.71;99629.88;5114226;28;20023;-73
2021/08/21 02:47:35;;;;;;;6.47;3.75;;;;;;;22.36;41.80;99624.72;5114297;28;20048;-73
2021/08/21 02:50:00;;;;;;;5.25;3.88;;;;;;;22.67;41.77;99666.19;5114375;28;20492;-73
2021/08/21 02:52:26;;;;;;;4.38;3.65;;;;;;;22.27;41.90;99595.78;5114203;28;20480;-74
2021/08/21 02:54:51;;;;;;;4.70;3.55;;;;;;;22.64;41.80;99660.50;5114170;28;20042;-73
2021/08/21 02:57:16;;;;;;;7.55;4.03;;;;;;;22.64;41.96;99658.63;5113940;28;20008;-73
2021/08/21 02:59:42;;;;;;;5.18;4.20;;;;;;;22.59;42.07;99653.19;5113849;28;20084;-74
2021/08/21 03:02:07;;;;;;;5.85;4.18;;;;;;;22.45;42.07;99639.34;5095533;28;20027;-74
2021/08/21 03:04:33;;;;;;;5.07;3.95;;;;;;;22.59;42.24;99661.28;5113944;28;20120;-73
2021/08/21 03:06:58;;;;;;;7.82;4.20;;;;;;;22.55;42.41;99668.22;5113968;28;20496;-74
2021/08/21 03:09:24;;;;;;;6.00;4.68;;;;;;;22.58;42.22;99669.59;5113766;28;20102;-74
2021/08/21 03:11:49;;;;;;;5.57;4.50;;;;;;;22.13;42.14;99601.56;5113921;28;20024;-74
2021/08/21 03:14:14;;;;;;;6.30;4.00;;;;;;;22.15;42.39;99617.47;5113661;28;20031;-74
2021/08/21 03:16:40;;;;;;;6.50;4.22;;;;;;;22.48;42.41;99673.81;5113527;28;20023;-73
2021/08/21 03:19:05;;;;;;;4.22;3.83;;;;;;;22.25;42.42;99643.66;5113661;28;20031;-73
2021/08/21 03:21:30;;;;;;;6.78;4.10;;;;;;;22.44;42.50;99677.25;5113672;28;20068;-74
2021/08/21 03:23:56;;;;;;;9.50;4.50;;;;;;;22.46;42.50;99678.63;5113729;28;20030;-73
2021/08/21 03:26:21;;;;;;;4.45;3.88;;;;;;;22.15;42.56;99631.72;5113370;28;20032;-74
2021/08/21 03:28:47;;;;;;;6.55;4.10;;;;;;;22.38;42.77;99676.38;5113368;28;20027;-73
2021/08/21 03:31:12;;;;;;;5.60;4.47;;;;;;;22.37;43.04;99673.94;5113406;28;20125;-73
2021/08/21 03:33:37;;;;;;;4.60;4.00;;;;;;;22.37;43.11;99690.91;5113324;28;20416;-74
2021/08/21 03:36:03;;;;;;;5.22;4.72;;;;;;;22.33;43.09;99686.28;5095168;28;20031;-74
2021/08/21 03:38:29;;;;;;;5.65;4.05;;;;;;;22.22;43.47;99687.19;5113322;28;20042;-74
2021/08/21 03:40:54;;;;;;;5.57;3.85;;;;;;;21.96;43.74;99659.13;5094964;28;20058;-73
2021/08/21 03:43:19;;;;;;;4.97;4.30;;;;;;;22.13;43.78;99692.19;5113173;28;20038;-73
2021/08/21 03:45:45;;;;;;;7.57;4.63;;;;;;;22.01;43.82;99683.41;5113233;28;20019;-73
2021/08/21 03:48:11;;;;;;;4.75;4.30;;;;;;;21.99;43.82;99698.97;5113024;28;20476;-75
2021/08/21 03:50:37;;;;;;;6.10;4.63;;;;;;;22.01;43.99;99700.34;5113131;28;20035;-75
2021/08/21 03:53:03;;;;;;;4.85;4.35;;;;;;;21.65;43.98;99647.97;5112670;28;20031;-74
2021/08/21 03:55:28;;;;;;;7.75;5.18;;;;;;;21.89;44.18;99699.66;5112661;28;20063;-74
2021/08/21 03:57:54;;;;;;;6.03;4.53;;;;;;;21.83;44.44;99703.31;5112621;28;20114;-74
2021/08/21 04:00:19;;;;;;;5.95;4.47;;;;;;;21.45;44.56;99643.09;5112773;28;20027;-74
2021/08/21 04:02:45;;;;;;;6.47;4.57;;;;;;;21.80;44.66;99701.94;5112690;28;20024;-74
2021/08/21 04:05:10;;;;;;;6.03;4.50;;;;;;;21.73;44.82;99687.88;5112782;28;20058;-74
2021/08/21 04:07:35;;;;;;;6.97;4.75;;;;;;;21.71;44.90;99690.00;5112553;28;20027;-75
2021/08/21 04:10:06;;;;;;;6.10;4.30;;;;;;;21.75;44.89;99703.75;5094272;28;20026;-75
2021/08/21 04:12:31;;;;;;;5.85;4.03;;;;;;;21.41;45.06;99651.91;5112266;28;20023;-74
2021/08/21 04:14:56;;;;;;;7.38;4.93;;;;;;;21.70;45.10;99709.88;5094102;28;20052;-75
2021/08/21 04:17:23;;;;;;;7.75;4.47;;;;;;;21.25;45.33;99646.31;5112651;28;20107;-74
2021/08/21 04:19:49;;;;;;;8.07;4.72;;;;;;;21.42;45.39;99672.34;5112579;28;20030;-74
2021/08/21 04:22:14;;;;;;;6.43;4.72;;;;;;;21.46;45.45;99687.72;5112628;28;20049;-74
2021/08/21 04:24:39;;;;;;;6.50;4.60;;;;;;;21.63;45.31;99709.22;5112509;28;20031;-78
2021/08/21 04:27:05;;;;;;;7.63;4.85;;;;;;;21.41;45.30;99671.53;5112217;28;20028;-79
2021/08/21 04:29:30;;;;;;;6.93;4.72;;;;;;;21.65;45.58;99714.34;5112398;28;20450;-79
2021/08/21 04:31:56;;;;;;;7.30;4.82;;;;;;;21.37;45.49;99675.75;5112222;28;20408;-79
2021/08/21 04:34:21;;;;;;;10.57;7.10;;;;;;;21.63;45.60;99709.22;5112048;28;20031;-79
2021/08/21 04:36:46;;;;;;;8.00;7.30;;;;;;;21.44;45.55;99673.72;5112167;28;20106;-79
2021/08/21 04:39:12;;;;;;;8.65;7.75;;;;;;;21.39;45.45;99659.41;5112050;28;20396;-79
2021/08/21 04:41:37;;;;;;;11.23;10.13;;;;;;;21.51;45.37;99684.28;5093928;28;20084;-79
2021/08/21 04:44:03;;;;;;;13.20;11.07;;;;;;;21.73;45.26;99713.94;5112191;28;20057;-79
2021/08/21 04:46:28;;;;;;;7.95;7.03;;;;;;;21.76;45.03;99721.50;5111669;28;20032;-79
2021/08/21 04:48:53;;;;;;;7.50;6.72;;;;;;;21.56;45.21;99697.84;5112076;28;20073;-79
2021/08/21 04:51:19;;;;;;;10.02;6.00;;;;;;;21.74;45.13;99729.81;5111815;28;20020;-79
2021/08/21 04:53:44;;;;;;;7.10;6.40;;;;;;;21.77;45.07;99729.31;5111912;28;20412;-79
2021/08/21 04:56:10;;;;;;;7.55;5.55;;;;;;;21.34;45.24;99680.81;5111830;28;20032;-78
2021/08/21 04:58:35;;;;;;;7.57;5.80;;;;;;;21.74;45.18;99734.38;5111886;28;20031;-79
2021/08/21 05:01:00;;;;;;;6.45;5.50;;;;;;;21.52;45.31;99693.97;5111913;28;20084;-79
2021/08/21 05:03:26;;;;;;;7.47;5.30;;;;;;;21.62;45.14;99696.03;5111729;28;20024;-79
2021/08/21 05:05:51;;;;;;;7.97;5.50;;;;;;;21.94;45.09;99733.84;5111751;28;20030;-79
2021/08/21 05:08:17;;;;;;;7.07;5.10;;;;;;;21.68;45.05;99682.44;5093586;28;20102;-79
2021/08/21 05:10:43;;;;;;;6.43;5.13;;;;;;;21.74;44.95;99677.94;5111647;28;20023;-79
2021/08/21 05:13:08;;;;;;;5.82;5.32;;;;;;;22.15;44.67;99738.47;5093543;28;20385;-79
2021/08/21 05:15:34;;;;;;;6.57;4.90;;;;;;;21.88;44.79;99693.47;5111668;28;20028;-79
2021/08/21 05:18:01;;;;;;;8.32;5.82;;;;;;;22.08;44.79;99706.38;5111588;28;20031;-78
2021/08/21 05:20:30;;;;;;;9.65;5.57;;;;;;;22.08;44.85;99706.38;5111585;28;20032;-79
2021/08/21 05:23:13;;;;;;;6.40;5.32;;;;;;;22.35;45.02;99751.41;5111846;28;20032;-79
2021/08/21 05:25:40;;;;;;;8.93;5.28;;;;;;;22.43;44.69;99750.97;5111555;28;20058;-78
2021/08/21 05:28:06;;;;;;;6.05;5.18;;;;;;;22.44;44.79;99747.22;5111501;28;20441;-79
2021/08/21 05:30:33;;;;;;;5.85;4.30;;;;;;;22.58;44.75;99750.34;5111574;28;20048;-79
2021/08/21 05:32:59;;;;;;;7.40;5.60;;;;;;;22.15;44.74;99674.75;5111350;28;20077;-79
2021/08/21 05:35:24;;;;;;;7.50;4.88;;;;;;;22.69;44.64;99747.50;5111722;28;20078;-79
2021/08/21 05:37:49;;;;;;;7.28;5.60;;;;;;;22.54;44.50;99720.41;5111492;28;20034;-79
2021/08/21 05:40:15;;;;;;;6.70;4.47;;;;;;;22.71;44.39;99734.59;5111604;28;20031;-79
2021/08/21 05:42:40;;;;;;;4.50;4.10;;;;;;;22.89;43.80;99744.25;5111186;28;20016;-79
2021/08/21 05:45:06;;;;;;;7.70;5.00;;;;;;;22.97;43.52;99742.97;5111254;28;20027;-79
2021/08/21 05:47:31;;;;;;;7.38;4.93;;;;;;;22.98;43.46;99740.03;5111315;28;20045;-79
2021/08/21 05:50:01;;;;;;;6.30;4.25;;;;;;;22.96;43.26;99731.41;5111550;28;20393;-79
2021/08/21 05:52:29;;;;;;;5.60;4.38;;;;;;;23.03;42.96;99733.88;5111321;28;20453;-78
2021/08/21 05:54:54;;;;;;;7.70;4.65;;;;;;;22.77;42.73;99693.22;5111384;28;20028;-79
2021/08/21 05:57:20;;;;;;;5.07;4.00;;;;;;;23.13;42.35;99732.13;5111212;28;20412;-79
2021/08/21 05:59:45;;;;;;;6.05;4.32;;;;;;;23.14;42.08;99714.91;5114265;28;20024;-79
2021/08/21 06:02:10;;;;;;;4.72;3.88;;;;;;;23.00;42.11;99685.91;5115002;28;20030;-79
2021/08/21 06:04:36;;;;;;;5.60;4.13;;;;;;;23.46;42.03;99747.22;5115064;28;20476;-80
2021/08/21 06:07:02;;;;;;;6.97;4.68;;;;;;;23.34;41.93;99719.63;5114942;28;20023;-80
2021/08/21 06:09:27;;;;;;;4.97;4.32;;;;;;;23.09;41.87;99668.25;5096734;28;20389;-79
2021/08/21 06:11:53;;;;;;;6.15;4.95;;;;;;;23.62;41.99;99739.28;5114857;28;20032;-78
2021/08/21 06:14:19;;;;;;;8.75;4.50;;;;;;;23.77;41.86;99756.38;5114894;28;20485;-78
2021/08/21 06:16:44;;;;;;;10.65;4.68;;;;;;;23.87;41.96;99749.47;5114569;28;20035;-78
2021/08/21 06:19:10;;;;;;;5.00;4.35;;;;;;;23.96;41.82;99747.91;5096254;28;20028;-79
2021/08/21 06:21:35;;;;;;;8.43;4.47;;;;;;;24.01;41.93;99754.13;5114472;28;20059;-79
2021/08/21 06:24:01;;;;;;;5.97;4.45;;;;;;;23.69;41.80;99688.66;5114522;28;20075;-76
2021/08/21 06:26:26;;;;;;;8.30;4.70;;;;;;;24.09;42.00;99748.25;5114448;28;20035;-75
2021/08/21 06:28:52;;;;;;;8.07;5.03;;;;;;;24.14;41.87;99752.84;5114440;28;20484;-75
2021/08/21 06:31:17;;;;;;;7.32;4.45;;;;;;;24.16;41.66;99747.19;5114238;28;20110;-75
2021/08/21 06:33:42;;;;;;;9.35;6.25;;;;;;;23.91;41.81;99696.63;5114373;28;20038;-75
2021/08/21 06:36:08;;;;;;;8.18;5.13;;;;;;;24.32;41.75;99755.13;5114445;28;20020;-74
2021/08/21 06:38:33;;;;;;;9.27;4.85;;;;;;;24.39;41.58;99744.91;5096095;28;20478;-73
2021/08/21 06:40:59;;;;;;;7.72;5.13;;;;;;;24.08;41.71;99698.06;5114300;28;20053;-76
2021/08/21 06:43:24;;;;;;;7.63;5.43;;;;;;;24.43;41.39;99720.91;5095961;28;20031;-75
2021/08/21 06:45:50;;;;;;;5.68;5.10;;;;;;;24.65;41.47;99748.53;5114154;28;20046;-76
2021/08/21 06:48:15;;;;;;;9.35;5.55;;;;;;;24.56;41.31;99720.44;5114243;28;20027;-74
2021/08/21 06:50:40;;;;;;;6.78;4.25;;;;;;;24.71;40.81;99719.66;5114097;28;20027;-75
2021/08/21 06:53:06;;;;;;;6.88;4.05;;;;;;;24.85;40.93;99720.78;5113912;28;20084;-77
2021/08/21 06:55:31;;;;;;;5.60;3.88;;;;;;;25.15;40.63;99749.75;5113796;28;20023;-74
2021/08/21 06:57:57;;;;;;;4.43;3.58;;;;;;;25.23;40.35;99743.81;5113713;28;20024;-75
2021/08/21 07:00:23;;;;;;;7.03;4.53;;;;;;;25.38;40.24;99744.94;5113590;28;20411;-74
2021/08/21 07:02:49;;;;;;;6.90;3.92;;;;;;;25.46;39.38;99750.59;5114197;28;20054;-74
2021/08/21 07:05:14;;;;;;;7.47;3.92;;;;;;;25.50;38.85;99745.47;5114056;28;20047;-74
2021/08/21 07:07:40;;;;;;;4.95;3.97;;;;;;;25.56;38.95;99749.78;5113589;28;20411;-75
2021/08/21 07:10:06;;;;;;;4.82;3.50;;;;;;;25.60;38.58;99743.56;5113145;28;20061;-74
2021/08/21 07:12:32;;;;;;;5.07;4.13;;;;;;;25.68;38.30;99749.53;5113355;28;20071;-75
2021/08/21 07:14:57;;;;;;;5.65;4.10;;;;;;;25.75;38.01;99750.06;5113329;28;20103;-73
2021/08/21 07:17:22;;;;;;;5.10;4.10;;;;;;;25.78;38.06;99747.63;5113363;28;20110;-75
2021/08/21 07:19:48;;;;;;;6.03;3.58;;;;;;;25.87;37.89;99754.09;5113186;28;20020;-75
2021/08/21 07:22:13;;;;;;;5.72;3.92;;;;;;;25.94;37.85;99746.50;5113358;28;20114;-75
2021/08/21 07:24:39;;;;;;;4.78;3.85;;;;;;;25.73;37.65;99698.13;5113395;28;20475;-74
2021/08/21 07:27:04;;;;;;;5.50;4.10;;;;;;;26.10;37.21;99741.09;5113325;28;20031;-73
2021/08/21 07:29:30;;;;;;;4.40;4.00;;;;;;;26.17;36.88;99737.00;5113520;28;20023;-76
2021/08/21 07:31:56;;;;;;;7.25;3.80;;;;;;;25.80;36.74;99683.25;5113058;28;20027;-73
2021/08/21 07:34:21;;;;;;;5.05;4.45;;;;;;;26.25;36.02;99743.75;5113221;28;20026;-75
2021/08/21 07:36:47;;;;;;;4.57;3.65;;;;;;;26.38;35.55;99743.19;5113079;28;20035;-75
2021/08/21 07:39:12;;;;;;;7.03;4.35;;;;;;;26.15;35.36;99701.28;5112970;28;20447;-73
2021/08/21 07:41:38;;;;;;;4.07;3.58;;;;;;;26.41;35.36;99720.16;5113064;28;20039;-73
2021/08/21 07:44:03;;;;;;;5.18;3.70;;;;;;;26.47;35.33;99721.75;5113122;28;20039;-72
2021/08/21 07:46:30;;;;;;;5.45;4.43;;;;;;;26.48;35.26;99715.25;5112831;28;20470;-76
2021/08/21 07:48:55;;;;;;;7.20;4.60;;;;;;;26.78;35.07;99738.69;5112888;28;20031;-75
2021/08/21 07:51:21;;;;;;;5.40;4.75;;;;;;;26.72;34.60;99723.53;5112969;28;20020;-75
2021/08/21 07:53:46;;;;;;;8.40;4.53;;;;;;;26.93;34.37;99738.59;5112804;28;20106;-75
2021/08/21 07:56:12;;;;;;;6.07;4.15;;;;;;;26.67;33.89;99696.47;5112766;28;20076;-73
2021/08/21 07:58:37;;;;;;;6.53;4.88;;;;;;;26.90;33.83;99731.84;5112616;28;20023;-74
2021/08/21 08:01:02;;;;;;;5.80;4.78;;;;;;;27.12;32.86;99739.56;5112478;28;20484;-75
2021/08/21 08:03:28;;;;;;;6.13;5.40;;;;;;;27.16;32.75;99753.38;5112585;28;20023;-75
2021/08/21 08:05:54;;;;;;;6.68;4.63;;;;;;;27.16;32.69;99745.25;5094127;28;20031;-74
2021/08/21 08:08:20;;;;;;;7.05;3.65;;;;;;;27.20;32.68;99741.69;5112601;28;20020;-75
2021/08/21 08:10:46;;;;;;;7.40;4.35;;;;;;;27.31;32.70;99744.31;5112224;28;20047;-75
2021/08/21 08:13:11;;;;;;;7.97;4.70;;;;;;;27.29;32.32;99728.31;5112451;28;20404;-75
2021/08/21 08:15:37;;;;;;;5.85;4.15;;;;;;;27.20;32.49;99716.47;5112272;28;20023;-75
2021/08/21 08:18:03;;;;;;;6.88;4.07;;;;;;;27.46;32.50;99736.84;5112219;28;20023;-74
2021/08/21 08:20:28;;;;;;;5.10;3.60;;;;;;;27.66;32.31;99730.50;5111850;28;20020;-75
2021/08/21 08:22:54;;;;;;;7.22;4.25;;;;;;;27.79;31.91;99727.09;5111648;28;20032;-75
2021/08/21 08:25:20;;;;;;;5.70;4.13;;;;;;;27.59;31.93;99692.00;5111976;28;20411;-75
2021/08/21 08:27:46;;;;;;;5.03;4.53;;;;;;;27.96;31.59;99723.13;5111543;28;20084;-74
2021/08/21 08:30:15;;;;;;;10.05;4.43;;;;;;;28.09;31.89;99717.81;5111701;28;20032;-75
2021/08/21 08:32:42;;;;;;;5.80;4.22;;;;;;;27.96;31.45;99693.28;5111774;28;20024;-75
2021/08/21 08:35:08;;;;;;;6.35;3.60;;;;;;;27.87;31.17;99657.81;5111787;28;20047;-72
2021/08/21 08:37:34;;;;;;;4.28;3.88;;;;;;;28.37;31.61;99718.91;5111865;28;20035;-75
2021/08/21 08:39:59;;;;;;;6.45;4.38;;;;;;;28.34;31.15;99686.88;5111849;28;20031;-75
2021/08/21 08:42:25;;;;;;;8.63;4.43;;;;;;;28.35;30.95;99672.22;5111549;28;20076;-75
2021/08/21 08:44:50;;;;;;;7.53;4.18;;;;;;;28.42;30.67;99669.94;5111172;28;20443;-76
2021/08/21 08:47:17;;;;;;;5.45;3.95;;;;;;;28.79;30.91;99712.63;5111785;28;20031;-75
2021/08/21 08:49:48;;;;;;;5.70;4.00;;;;;;;28.94;30.57;99711.59;5111626;28;20030;-74
2021/08/21 08:52:18;;;;;;;6.00;3.87;;;;;;;29.04;30.74;99722.34;5111644;28;20070;-75
2021/08/21 08:54:45;;;;;;;4.82;4.22;;;;;;;29.07;30.40;99718.25;5111437;28;20354;-73
2021/08/21 08:57:37;;;;;;;5.57;4.18;;;;;;;29.13;30.06;99706.19;5111455;28;20059;-74
2021/08/21 09:00:07;;;;;;;6.10;4.10;;;;;;;29.25;30.04;99705.72;5107566;28;20504;-73
2021/08/21 09:02:34;;;;;;;8.57;4.20;;;;;;;29.37;30.14;99704.13;5111416;28;20059;-74
2021/08/21 09:05:01;;;;;;;7.97;4.63;;;;;;;29.47;29.85;99695.03;5111916;28;20553;-74
2021/08/21 09:07:44;;;;;;;6.35;4.60;;;;;;;29.63;29.68;99695.56;5111373;28;20061;-75
2021/08/21 09:10:17;;;;;;;6.65;4.28;;;;;;;29.49;30.08;99646.56;5111591;28;20029;-74
2021/08/21 09:12:43;;;;;;;6.53;4.65;;;;;;;29.88;29.66;99665.16;5111737;28;20034;-71
2021/08/21 09:15:28;;;;;;;8.05;4.93;;;;;;;30.21;29.11;99698.53;5111782;28;20055;-72
2021/08/21 09:18:00;;;;;;;5.80;4.88;;;;;;;30.30;29.31;99690.47;5111289;28;20030;-75
2021/08/21 09:20:26;;;;;;;6.60;4.85;;;;;;;30.50;28.59;99695.50;5111385;28;20085;-74
2021/08/21 09:22:51;;;;;;;9.80;4.50;;;;;;;30.61;28.77;99699.66;5111516;28;20085;-73
2021/08/21 09:25:30;;;;;;;6.03;4.13;;;;;;;30.71;28.23;99690.44;5093066;28;20035;-77
2021/08/21 09:27:56;;;;;;;5.75;4.63;;;;;;;30.89;28.57;99685.94;5111352;28;20035;-78
2021/08/21 09:30:26;;;;;;;7.50;4.38;;;;;;;31.05;28.02;99697.28;5111295;28;20020;-78
2021/08/21 09:33:01;;;;;;;7.53;4.47;;;;;;;31.13;27.71;99682.88;5112799;28;20031;-78
2021/08/21 09:35:32;;;;;;;5.95;4.18;;;;;;;31.05;27.58;99643.53;5115293;28;20023;-78
2021/08/21 09:37:58;;;;;;;6.97;4.10;;;;;;;31.36;26.93;99672.81;5115608;28;20416;-79
2021/08/21 09:40:30;;;;;;;7.25;4.00;;;;;;;31.43;26.65;99673.19;5115363;28;20115;-79
2021/08/21 09:42:57;;;;;;;6.22;4.07;;;;;;;31.49;26.77;99682.84;5115347;28;20024;-79
2021/08/21 09:45:24;;;;;;;7.35;4.32;;;;;;;31.57;26.72;99673.88;5115157;28;20551;-79
2021/08/21 09:47:58;;;;;;;4.05;3.35;;;;;;;31.70;26.37;99664.03;5096966;28;20027;-77
2021/08/21 09:50:23;;;;;;;5.57;4.32;;;;;;;31.74;26.59;99643.16;5115168;28;20023;-79
2021/08/21 09:52:49;;;;;;;4.18;3.78;;;;;;;32.01;26.28;99633.94;5115136;28;20057;-78
2021/08/21 09:55:20;;;;;;;7.38;4.07;;;;;;;32.53;25.72;99668.44;5098997;28;20096;-79
2021/08/21 09:58:04;;;;;;;6.55;4.03;;;;;;;32.66;24.71;99663.94;5094492;28;20027;-79
2021/08/21 10:00:32;;;;;;;5.32;4.32;;;;;;;32.63;24.94;99653.66;5094671;28;20028;-79
2021/08/21 10:02:58;;;;;;;8.77;5.25;;;;;;;32.45;25.28;99598.19;5094542;28;20027;-78
2021/08/21 10:05:24;;;;;;;4.53;3.78;;;;;;;32.82;24.38;99635.06;5094584;28;20427;-79
2021/08/21 10:08:14;;;;;;;5.90;4.07;;;;;;;32.89;24.43;99648.25;5094646;28;20020;-79
2021/08/21 10:10:49;;;;;;;5.47;4.60;;;;;;;32.99;24.51;99656.09;5093686;28;20118;-79
2021/08/21 10:13:35;;;;;;;7.38;4.13;;;;;;;32.98;24.56;99615.41;5076022;28;20035;-77
2021/08/21 10:16:06;;;;;;;6.53;4.57;;;;;;;33.33;24.35;99644.31;5093907;28;20123;-77
2021/08/21 10:18:32;;;;;;;6.25;4.78;;;;;;;33.53;23.98;99648.28;5075937;28;20028;-78
2021/08/21 10:20:57;;;;;;;5.28;4.18;;;;;;;33.71;23.57;99646.28;5094213;28;20515;-78
2021/08/21 10:23:26;;;;;;;5.32;4.30;;;;;;;33.41;23.24;99574.25;5094171;28;20028;-78
2021/08/21 10:26:03;;;;;;;5.70;3.85;;;;;;;33.89;23.28;99606.75;5094049;28;20394;-76
2021/08/21 10:28:37;;;;;;;5.82;4.18;;;;;;;34.14;22.85;99634.31;5094338;28;20585;-78
2021/08/21 10:31:02;;;;;;;10.98;5.55;;;;;;;34.22;22.67;99647.19;5094150;28;20114;-79
2021/08/21 10:33:30;;;;;;;6.43;4.70;;;;;;;34.35;22.53;99635.19;5094070;28;20103;-79
2021/08/21 10:35:56;;;;;;;18.30;16.42;;;;;;;34.59;22.13;99629.81;5094096;28;20557;-79
2021/08/21 10:38:31;;;;;;;4.90;4.20;;;;;;;34.65;21.79;99625.75;5093869;28;20026;-79
2021/08/21 10:41:20;;;;;;;6.45;4.30;;;;;;;34.48;22.05;99623.16;5075712;28;20516;-78
2021/08/21 10:43:54;;;;;;;5.05;4.55;;;;;;;34.48;22.20;99593.00;5082474;28;20032;-77
2021/08/21 10:46:28;;;;;;;7.50;6.22;;;;;;;34.66;22.56;99618.31;5093939;28;20024;-79
2021/08/21 10:48:54;;;;;;;6.63;5.47;;;;;;;34.83;22.35;99618.19;5093962;28;20058;-79
2021/08/21 10:51:41;;;;;;;4.50;4.10;;;;;;;34.92;21.83;99615.34;5093883;28;20020;-79
2021/08/21 10:54:25;;;;;;;5.85;4.35;;;;;;;35.02;22.00;99625.94;5093762;28;20016;-79
2021/08/21 10:56:52;;;;;;;10.32;7.80;;;;;;;35.13;21.82;99627.09;5093562;28;20059;-78
2021/08/21 10:59:40;;;;;;;8.07;4.32;;;;;;;35.09;21.05;99619.88;5093347;28;20028;-79
2021/08/21 11:02:20;;;;;;;5.65;3.60;;;;;;;35.24;21.20;99616.50;5093027;28;20027;-78
2021/08/21 11:04:46;;;;;;;4.57;3.80;;;;;;;35.37;20.79;99614.59;5093454;28;20422;-79
2021/08/21 11:07:30;;;;;;;5.60;3.63;;;;;;;35.69;20.31;99624.72;5093487;28;20032;-79
2021/08/21 11:10:14;;;;;;;5.57;4.97;;;;;;;35.72;20.66;99615.78;5093366;28;20027;-78
2021/08/21 11:12:43;;;;;;;3.90;3.50;;;;;;;35.77;20.37;99617.50;5074843;28;20402;-79
2021/08/21 11:15:24;;;;;;;7.30;4.20;;;;;;;35.98;19.57;99612.69;5093111;28;20020;-79
2021/08/21 11:17:50;;;;;;;6.10;3.72;;;;;;;35.73;19.90;99573.44;5093069;28;20019;-79
2021/08/21 11:20:33;;;;;;;5.45;3.30;;;;;;;36.03;19.89;99614.41;5092932;28;20032;-78
2021/08/21 11:23:05;;;;;;;3.42;3.13;;;;;;;36.18;19.31;99608.19;5093043;28;20031;-79
2021/08/21 11:25:31;;;;;;;5.45;4.05;;;;;;;36.32;19.80;99603.13;5092826;28;20026;-78
2021/08/21 11:28:08;;;;;;;4.95;3.55;;;;;;;36.35;19.16;99599.69;5093077;28;20404;-78
2021/08/21 11:30:37;;;;;;;4.45;4.05;;;;;;;36.29;18.81;99596.38;5092798;28;20109;-77
2021/08/21 11:33:06;;;;;;;4.63;4.00;;;;;;;36.26;19.28;99601.75;5092315;28;20034;-78
2021/08/21 11:35:37;;;;;;;4.82;4.30;;;;;;;36.42;19.25;99599.13;5092432;28;20020;-79